sensor_id;sensor_type;location;lat;lon;timestamp;pressure;altitude;pressure_sealevel;temperature
60731;BMP280;46580;52.114;11.674;2023-07-20T00:00:17;100600.72;;;17.81
60731;BMP280;46580;52.114;11.674;2023-07-20T00:02:42;100597.50;;;17.79
60731;BMP280;46580;52.114;11.674;2023-07-20T00:05:08;100600.41;;;17.76
60731;BMP280;46580;52.114;11.674;2023-07-20T00:07:33;100597.50;;;17.71
60731;BMP280;46580;52.114;11.674;2023-07-20T00:09:59;100592.75;;;17.74
60731;BMP280;46580;52.114;11.674;2023-07-20T00:12:24;100590.16;;;17.67
60731;BMP280;46580;52.114;11.674;2023-07-20T00:14:49;100585.75;;;17.59
60731;BMP280;46580;52.114;11.674;2023-07-20T00:17:18;100593.75;;;17.58
60731;BMP280;46580;52.114;11.674;2023-07-20T00:19:44;100597.00;;;17.60
60731;BMP280;46580;52.114;11.674;2023-07-20T00:22:09;100589.03;;;17.53
60731;BMP280;46580;52.114;11.674;2023-07-20T00:24:34;100588.72;;;17.49
60731;BMP280;46580;52.114;11.674;2023-07-20T00:27:00;100597.81;;;17.45
60731;BMP280;46580;52.114;11.674;2023-07-20T00:29:26;100606.91;;;17.41
60731;BMP280;46580;52.114;11.674;2023-07-20T00:31:51;100600.72;;;17.42
60731;BMP280;46580;52.114;11.674;2023-07-20T00:34:19;100606.59;;;17.36
60731;BMP280;46580;52.114;11.674;2023-07-20T00:36:45;100606.91;;;17.33
60731;BMP280;46580;52.114;11.674;2023-07-20T00:39:11;100608.06;;;17.31
60731;BMP280;46580;52.114;11.674;2023-07-20T00:41:36;100608.69;;;17.32
60731;BMP280;46580;52.114;11.674;2023-07-20T00:44:03;100606.56;;;17.28
60731;BMP280;46580;52.114;11.674;2023-07-20T00:46:28;100603.31;;;17.26
60731;BMP280;46580;52.114;11.674;2023-07-20T00:48:54;100609.97;;;17.21
60731;BMP280;46580;52.114;11.674;2023-07-20T00:51:21;100607.50;;;17.12
60731;BMP280;46580;52.114;11.674;2023-07-20T00:53:49;100608.00;;;17.07
60731;BMP280;46580;52.114;11.674;2023-07-20T00:56:16;100623.59;;;17.07
60731;BMP280;46580;52.114;11.674;2023-07-20T00:58:47;100620.34;;;17.05
60731;BMP280;46580;52.114;11.674;2023-07-20T01:01:12;100628.31;;;17.04
60731;BMP280;46580;52.114;11.674;2023-07-20T01:03:38;100626.69;;;17.03
60731;BMP280;46580;52.114;11.674;2023-07-20T01:09:11;100631.88;;;17.03
60731;BMP280;46580;52.114;11.674;2023-07-20T01:14:20;100628.44;;;16.94
60731;BMP280;46580;52.114;11.674;2023-07-20T01:16:46;100628.63;;;17.01
60731;BMP280;46580;52.114;11.674;2023-07-20T01:19:13;100632.53;;;17.12
60731;BMP280;46580;52.114;11.674;2023-07-20T01:32:58;100622.22;;;16.88
60731;BMP280;46580;52.114;11.674;2023-07-20T01:35:28;100621.03;;;16.74
60731;BMP280;46580;52.114;11.674;2023-07-20T01:37:55;100619.88;;;16.69
60731;BMP280;46580;52.114;11.674;2023-07-20T01:40:25;100621.00;;;16.67
60731;BMP280;46580;52.114;11.674;2023-07-20T01:42:51;100625.13;;;16.52
60731;BMP280;46580;52.114;11.674;2023-07-20T01:45:17;100635.09;;;16.56
60731;BMP280;46580;52.114;11.674;2023-07-20T01:47:42;100633.31;;;16.57
60731;BMP280;46580;52.114;11.674;2023-07-20T01:50:09;100640.09;;;16.50
60731;BMP280;46580;52.114;11.674;2023-07-20T01:52:35;100635.47;;;16.44
60731;BMP280;46580;52.114;11.674;2023-07-20T01:55:00;100643.66;;;16.49
60731;BMP280;46580;52.114;11.674;2023-07-20T01:57:25;100642.06;;;16.56
60731;BMP280;46580;52.114;11.674;2023-07-20T01:59:51;100647.75;;;16.59
60731;BMP280;46580;52.114;11.674;2023-07-20T02:02:16;100642.31;;;16.45
60731;BMP280;46580;52.114;11.674;2023-07-20T02:04:43;100638.09;;;16.44
60731;BMP280;46580;52.114;11.674;2023-07-20T02:07:09;100636.44;;;16.36
60731;BMP280;46580;52.114;11.674;2023-07-20T02:09:35;100644.22;;;16.36
60731;BMP280;46580;52.114;11.674;2023-07-20T02:12:00;100641.25;;;16.31
60731;BMP280;46580;52.114;11.674;2023-07-20T02:14:25;100641.22;;;16.23
60731;BMP280;46580;52.114;11.674;2023-07-20T02:16:51;100643.00;;;16.22
60731;BMP280;46580;52.114;11.674;2023-07-20T02:19:17;100637.97;;;16.21
60731;BMP280;46580;52.114;11.674;2023-07-20T02:21:43;100644.59;;;16.16
60731;BMP280;46580;52.114;11.674;2023-07-20T02:24:08;100643.50;;;16.26
60731;BMP280;46580;52.114;11.674;2023-07-20T02:26:34;100644.78;;;16.22
60731;BMP280;46580;52.114;11.674;2023-07-20T02:28:59;100655.72;;;16.33
60731;BMP280;46580;52.114;11.674;2023-07-20T02:31:24;100657.84;;;16.37
60731;BMP280;46580;52.114;11.674;2023-07-20T02:33:50;100660.50;;;16.45
60731;BMP280;46580;52.114;11.674;2023-07-20T02:36:15;100657.66;;;16.56
60731;BMP280;46580;52.114;11.674;2023-07-20T02:38:42;100653.09;;;16.50
60731;BMP280;46580;52.114;11.674;2023-07-20T02:41:07;100659.66;;;16.37
60731;BMP280;46580;52.114;11.674;2023-07-20T02:43:33;100654.56;;;16.28
60731;BMP280;46580;52.114;11.674;2023-07-20T02:45:58;100654.34;;;16.21
60731;BMP280;46580;52.114;11.674;2023-07-20T02:48:25;100657.19;;;16.11
60731;BMP280;46580;52.114;11.674;2023-07-20T02:50:50;100656.53;;;16.09
60731;BMP280;46580;52.114;11.674;2023-07-20T02:53:15;100654.38;;;16.04
60731;BMP280;46580;52.114;11.674;2023-07-20T02:55:41;100658.25;;;16.00
60731;BMP280;46580;52.114;11.674;2023-07-20T02:58:06;100658.56;;;15.98
60731;BMP280;46580;52.114;11.674;2023-07-20T03:00:33;100659.38;;;15.98
60731;BMP280;46580;52.114;11.674;2023-07-20T03:02:58;100655.22;;;15.88
60731;BMP280;46580;52.114;11.674;2023-07-20T03:05:24;100663.50;;;15.91
60731;BMP280;46580;52.114;11.674;2023-07-20T03:07:54;100660.75;;;15.93
60731;BMP280;46580;52.114;11.674;2023-07-20T03:10:19;100657.06;;;15.78
60731;BMP280;46580;52.114;11.674;2023-07-20T03:12:45;100656.72;;;15.73
60731;BMP280;46580;52.114;11.674;2023-07-20T03:15:10;100664.84;;;15.78
60731;BMP280;46580;52.114;11.674;2023-07-20T03:17:36;100666.13;;;15.74
60731;BMP280;46580;52.114;11.674;2023-07-20T03:20:03;100663.91;;;15.79
60731;BMP280;46580;52.114;11.674;2023-07-20T03:22:28;100670.56;;;15.81
60731;BMP280;46580;52.114;11.674;2023-07-20T03:24:53;100674.28;;;15.79
60731;BMP280;46580;52.114;11.674;2023-07-20T03:27:19;100676.88;;;15.79
60731;BMP280;46580;52.114;11.674;2023-07-20T03:29:45;100668.94;;;15.81
60731;BMP280;46580;52.114;11.674;2023-07-20T03:32:10;100675.09;;;15.80
60731;BMP280;46580;52.114;11.674;2023-07-20T03:34:36;100671.53;;;15.81
60731;BMP280;46580;52.114;11.674;2023-07-20T03:37:02;100667.44;;;15.78
60731;BMP280;46580;52.114;11.674;2023-07-20T03:39:30;100672.97;;;15.75
60731;BMP280;46580;52.114;11.674;2023-07-20T03:41:58;100676.38;;;15.76
60731;BMP280;46580;52.114;11.674;2023-07-20T03:44:24;100686.44;;;15.79
60731;BMP280;46580;52.114;11.674;2023-07-20T03:47:05;100682.53;;;15.75
60731;BMP280;46580;52.114;11.674;2023-07-20T03:49:33;100682.31;;;15.68
60731;BMP280;46580;52.114;11.674;2023-07-20T03:51:58;100677.41;;;15.65
60731;BMP280;46580;52.114;11.674;2023-07-20T03:54:23;100683.41;;;15.66
60731;BMP280;46580;52.114;11.674;2023-07-20T03:56:50;100683.94;;;15.69
60731;BMP280;46580;52.114;11.674;2023-07-20T03:59:17;100685.84;;;15.67
60731;BMP280;46580;52.114;11.674;2023-07-20T04:01:42;100681.78;;;15.65
60731;BMP280;46580;52.114;11.674;2023-07-20T04:04:09;100689.41;;;15.66
60731;BMP280;46580;52.114;11.674;2023-07-20T04:06:34;100687.28;;;15.62
60731;BMP280;46580;52.114;11.674;2023-07-20T04:09:00;100682.91;;;15.63
60731;BMP280;46580;52.114;11.674;2023-07-20T04:11:27;100687.91;;;15.64
60731;BMP280;46580;52.114;11.674;2023-07-20T04:13:52;100696.00;;;15.61
60731;BMP280;46580;52.114;11.674;2023-07-20T04:16:19;100700.38;;;15.61
60731;BMP280;46580;52.114;11.674;2023-07-20T04:22:05;100707.22;;;15.62
60731;BMP280;46580;52.114;11.674;2023-07-20T04:24:30;100698.84;;;15.67
60731;BMP280;46580;52.114;11.674;2023-07-20T04:26:55;100695.19;;;15.61
60731;BMP280;46580;52.114;11.674;2023-07-20T04:29:21;100687.78;;;15.65
60731;BMP280;46580;52.114;11.674;2023-07-20T04:31:46;100703.13;;;15.59
60731;BMP280;46580;52.114;11.674;2023-07-20T04:34:11;100707.06;;;15.63
60731;BMP280;46580;52.114;11.674;2023-07-20T04:36:38;100706.91;;;15.64
60731;BMP280;46580;52.114;11.674;2023-07-20T04:49:19;100697.41;;;16.07
60731;BMP280;46580;52.114;11.674;2023-07-20T04:51:45;100703.50;;;16.15
60731;BMP280;46580;52.114;11.674;2023-07-20T04:54:11;100701.53;;;16.34
60731;BMP280;46580;52.114;11.674;2023-07-20T05:03:29;100695.00;;;16.55
60731;BMP280;46580;52.114;11.674;2023-07-20T05:05:54;100705.06;;;16.58
60731;BMP280;46580;52.114;11.674;2023-07-20T05:08:21;100702.06;;;16.45
60731;BMP280;46580;52.114;11.674;2023-07-20T05:10:47;100710.22;;;16.25
60731;BMP280;46580;52.114;11.674;2023-07-20T05:13:14;100708.56;;;16.41
60731;BMP280;46580;52.114;11.674;2023-07-20T05:15:39;100707.19;;;16.55
60731;BMP280;46580;52.114;11.674;2023-07-20T05:18:06;100708.09;;;16.71
60731;BMP280;46580;52.114;11.674;2023-07-20T05:20:32;100701.25;;;16.70
60731;BMP280;46580;52.114;11.674;2023-07-20T05:22:59;100698.38;;;16.80
60731;BMP280;46580;52.114;11.674;2023-07-20T05:25:25;100700.94;;;16.73
60731;BMP280;46580;52.114;11.674;2023-07-20T05:27:51;100698.34;;;16.73
60731;BMP280;46580;52.114;11.674;2023-07-20T05:30:17;100706.50;;;16.85
60731;BMP280;46580;52.114;11.674;2023-07-20T05:32:44;100708.25;;;17.02
60731;BMP280;46580;52.114;11.674;2023-07-20T05:35:12;100706.19;;;17.13
60731;BMP280;46580;52.114;11.674;2023-07-20T05:37:38;100704.00;;;16.93
60731;BMP280;46580;52.114;11.674;2023-07-20T05:40:04;100708.25;;;17.02
60731;BMP280;46580;52.114;11.674;2023-07-20T05:42:30;100702.41;;;17.00
60731;BMP280;46580;52.114;11.674;2023-07-20T05:44:55;100704.94;;;16.92
60731;BMP280;46580;52.114;11.674;2023-07-20T05:47:21;100704.06;;;16.76
60731;BMP280;46580;52.114;11.674;2023-07-20T05:49:46;100704.06;;;16.76
60731;BMP280;46580;52.114;11.674;2023-07-20T05:52:13;100710.06;;;16.76
60731;BMP280;46580;52.114;11.674;2023-07-20T05:54:38;100702.41;;;17.00
60731;BMP280;46580;52.114;11.674;2023-07-20T05:57:04;100709.94;;;17.18
60731;BMP280;46580;52.114;11.674;2023-07-20T05:59:30;100709.63;;;17.21
60731;BMP280;46580;52.114;11.674;2023-07-20T06:01:55;100709.81;;;17.28
60731;BMP280;46580;52.114;11.674;2023-07-20T06:04:21;100723.50;;;17.30
60731;BMP280;46580;52.114;11.674;2023-07-20T06:06:47;100724.94;;;17.32
60731;BMP280;46580;52.114;11.674;2023-07-20T06:09:13;100719.22;;;17.21
60731;BMP280;46580;52.114;11.674;2023-07-20T06:11:38;100720.88;;;17.30
60731;BMP280;46580;52.114;11.674;2023-07-20T06:14:04;100720.25;;;17.35
60731;BMP280;46580;52.114;11.674;2023-07-20T06:16:30;100721.28;;;17.66
60731;BMP280;46580;52.114;11.674;2023-07-20T06:18:55;100726.31;;;17.59
60731;BMP280;46580;52.114;11.674;2023-07-20T06:21:21;100726.97;;;17.53
60731;BMP280;46580;52.114;11.674;2023-07-20T06:23:47;100723.34;;;17.39
60731;BMP280;46580;52.114;11.674;2023-07-20T06:26:14;100719.19;;;17.61
60731;BMP280;46580;52.114;11.674;2023-07-20T06:28:41;100722.56;;;17.54
60731;BMP280;46580;52.114;11.674;2023-07-20T06:31:07;100720.53;;;17.88
60731;BMP280;46580;52.114;11.674;2023-07-20T06:33:32;100723.00;;;18.13
60731;BMP280;46580;52.114;11.674;2023-07-20T06:35:57;100727.00;;;17.69
60731;BMP280;46580;52.114;11.674;2023-07-20T06:38:23;100719.53;;;17.74
60731;BMP280;46580;52.114;11.674;2023-07-20T06:40:52;100733.69;;;17.79
60731;BMP280;46580;52.114;11.674;2023-07-20T06:43:17;100737.66;;;17.91
60731;BMP280;46580;52.114;11.674;2023-07-20T06:45:51;100740.69;;;17.79
60731;BMP280;46580;52.114;11.674;2023-07-20T06:48:19;100741.19;;;17.82
60731;BMP280;46580;52.114;11.674;2023-07-20T06:50:44;100735.00;;;17.83
60731;BMP280;46580;52.114;11.674;2023-07-20T06:53:10;100738.91;;;17.71
60731;BMP280;46580;52.114;11.674;2023-07-20T06:55:35;100738.41;;;17.76
60731;BMP280;46580;52.114;11.674;2023-07-20T06:58:00;100738.47;;;18.07
60731;BMP280;46580;52.114;11.674;2023-07-20T07:00:26;100736.03;;;18.29
60731;BMP280;46580;52.114;11.674;2023-07-20T07:02:52;100738.09;;;18.57
60731;BMP280;46580;52.114;11.674;2023-07-20T07:05:19;100734.47;;;18.89
60731;BMP280;46580;52.114;11.674;2023-07-20T07:07:45;100731.88;;;18.89
60731;BMP280;46580;52.114;11.674;2023-07-20T07:10:10;100745.56;;;18.83
60731;BMP280;46580;52.114;11.674;2023-07-20T07:12:35;100740.19;;;18.84
60731;BMP280;46580;52.114;11.674;2023-07-20T07:15:02;100744.44;;;18.62
60731;BMP280;46580;52.114;11.674;2023-07-20T07:17:27;100734.53;;;18.65
60731;BMP280;46580;52.114;11.674;2023-07-20T07:19:53;100739.88;;;18.64
60731;BMP280;46580;52.114;11.674;2023-07-20T07:22:22;100738.94;;;18.57
60731;BMP280;46580;52.114;11.674;2023-07-20T07:24:48;100733.69;;;18.65
60731;BMP280;46580;52.114;11.674;2023-07-20T07:27:13;100738.44;;;18.77
60731;BMP280;46580;52.114;11.674;2023-07-20T07:29:41;100734.53;;;18.58
60731;BMP280;46580;52.114;11.674;2023-07-20T07:32:09;100737.81;;;18.28
60731;BMP280;46580;52.114;11.674;2023-07-20T07:34:37;100739.13;;;18.17
60731;BMP280;46580;52.114;11.674;2023-07-20T07:37:04;100736.50;;;18.09
60731;BMP280;46580;52.114;11.674;2023-07-20T07:39:30;100727.88;;;18.08
60731;BMP280;46580;52.114;11.674;2023-07-20T07:41:56;100735.03;;;18.14
60731;BMP280;46580;52.114;11.674;2023-07-20T07:44:22;100736.81;;;18.14
60731;BMP280;46580;52.114;11.674;2023-07-20T07:46:48;100731.00;;;18.12
60731;BMP280;46580;52.114;11.674;2023-07-20T07:49:14;100731.16;;;18.18
60731;BMP280;46580;52.114;11.674;2023-07-20T07:51:40;100737.81;;;18.36
60731;BMP280;46580;52.114;11.674;2023-07-20T07:54:06;100735.53;;;18.18
60731;BMP280;46580;52.114;11.674;2023-07-20T07:56:31;100729.50;;;18.33
60731;BMP280;46580;52.114;11.674;2023-07-20T07:58:57;100739.91;;;18.48
60731;BMP280;46580;52.114;11.674;2023-07-20T08:01:22;100745.63;;;18.52
60731;BMP280;46580;52.114;11.674;2023-07-20T08:03:48;100748.53;;;18.57
60731;BMP280;46580;52.114;11.674;2023-07-20T08:06:14;100738.94;;;18.42
60731;BMP280;46580;52.114;11.674;2023-07-20T08:08:41;100740.72;;;18.41
60731;BMP280;46580;52.114;11.674;2023-07-20T08:11:09;100754.06;;;18.54
60731;BMP280;46580;52.114;11.674;2023-07-20T08:13:35;100758.66;;;18.52
60731;BMP280;46580;52.114;11.674;2023-07-20T08:16:00;100758.81;;;18.35
60731;BMP280;46580;52.114;11.674;2023-07-20T08:18:28;100761.09;;;18.30
60731;BMP280;46580;52.114;11.674;2023-07-20T08:20:53;100767.28;;;18.37
60731;BMP280;46580;52.114;11.674;2023-07-20T08:23:19;100762.91;;;18.29
60731;BMP280;46580;52.114;11.674;2023-07-20T08:25:45;100763.06;;;18.43
60731;BMP280;46580;52.114;11.674;2023-07-20T08:28:13;100765.00;;;18.57
60731;BMP280;46580;52.114;11.674;2023-07-20T08:30:46;100763.69;;;18.53
60731;BMP280;46580;52.114;11.674;2023-07-20T08:33:17;100770.22;;;18.49
60731;BMP280;46580;52.114;11.674;2023-07-20T08:35:44;100767.75;;;18.56
60731;BMP280;46580;52.114;11.674;2023-07-20T08:38:09;100769.72;;;18.23
60731;BMP280;46580;52.114;11.674;2023-07-20T08:40:42;100770.41;;;18.24
60731;BMP280;46580;52.114;11.674;2023-07-20T08:43:10;100776.91;;;18.44
60731;BMP280;46580;52.114;11.674;2023-07-20T08:45:38;100777.72;;;18.29
60731;BMP280;46580;52.114;11.674;2023-07-20T08:48:05;100776.09;;;18.12
60731;BMP280;46580;52.114;11.674;2023-07-20T08:50:33;100777.22;;;18.18
60731;BMP280;46580;52.114;11.674;2023-07-20T08:52:59;100769.88;;;18.13
60731;BMP280;46580;52.114;11.674;2023-07-20T08:55:26;100779.50;;;18.05
60731;BMP280;46580;52.114;11.674;2023-07-20T08:57:54;100780.81;;;18.17
60731;BMP280;46580;52.114;11.674;2023-07-20T09:00:22;100771.53;;;18.22
60731;BMP280;46580;52.114;11.674;2023-07-20T09:02:52;100780.16;;;18.15
60731;BMP280;46580;52.114;11.674;2023-07-20T09:05:18;100784.34;;;18.00
60731;BMP280;46580;52.114;11.674;2023-07-20T09:07:44;100783.41;;;18.09
60731;BMP280;46580;52.114;11.674;2023-07-20T09:10:10;100780.81;;;18.17
60731;BMP280;46580;52.114;11.674;2023-07-20T09:12:40;100784.72;;;18.28
60731;BMP280;46580;52.114;11.674;2023-07-20T09:15:09;100789.75;;;18.06
60731;BMP280;46580;52.114;11.674;2023-07-20T09:17:35;100796.75;;;17.98
60731;BMP280;46580;52.114;11.674;2023-07-20T09:20:04;100793.47;;;17.96
60731;BMP280;46580;52.114;11.674;2023-07-20T09:22:35;100798.19;;;17.93
60731;BMP280;46580;52.114;11.674;2023-07-20T09:25:00;100798.03;;;18.02
60731;BMP280;46580;52.114;11.674;2023-07-20T09:27:38;100791.19;;;18.01
60731;BMP280;46580;52.114;11.674;2023-07-20T09:30:05;100791.06;;;18.10
60731;BMP280;46580;52.114;11.674;2023-07-20T09:32:38;100794.00;;;18.15
60731;BMP280;46580;52.114;11.674;2023-07-20T09:35:05;100791.06;;;18.34
60731;BMP280;46580;52.114;11.674;2023-07-20T09:37:33;100785.03;;;18.57
60731;BMP280;46580;52.114;11.674;2023-07-20T09:39:59;100787.94;;;18.61
60731;BMP280;46580;52.114;11.674;2023-07-20T09:42:26;100792.84;;;18.64
60731;BMP280;46580;52.114;11.674;2023-07-20T09:44:52;100791.53;;;18.61
60731;BMP280;46580;52.114;11.674;2023-07-20T09:47:25;100794.97;;;18.69
60731;BMP280;46580;52.114;11.674;2023-07-20T09:49:58;100794.47;;;18.73
60731;BMP280;46580;52.114;11.674;2023-07-20T09:52:25;100794.97;;;18.77
60731;BMP280;46580;52.114;11.674;2023-07-20T09:54:51;100793.16;;;18.69
60731;BMP280;46580;52.114;11.674;2023-07-20T09:57:16;100785.22;;;18.79
60731;BMP280;46580;52.114;11.674;2023-07-20T09:59:44;100791.84;;;18.89
60731;BMP280;46580;52.114;11.674;2023-07-20T10:02:22;100789.00;;;19.14
60731;BMP280;46580;52.114;11.674;2023-07-20T10:04:52;100793.53;;;19.27
60731;BMP280;46580;52.114;11.674;2023-07-20T10:07:19;100793.63;;;19.41
60731;BMP280;46580;52.114;11.674;2023-07-20T10:09:48;100784.47;;;19.53
60731;BMP280;46580;52.114;11.674;2023-07-20T10:12:15;100783.25;;;19.71
60731;BMP280;46580;52.114;11.674;2023-07-20T10:14:46;100779.38;;;19.89
60731;BMP280;46580;52.114;11.674;2023-07-20T10:17:16;100779.00;;;20.00
60731;BMP280;46580;52.114;11.674;2023-07-20T10:19:47;100776.72;;;19.97
60731;BMP280;46580;52.114;11.674;2023-07-20T10:22:19;100773.84;;;20.50
60731;BMP280;46580;52.114;11.674;2023-07-20T10:24:46;100781.09;;;20.48
60731;BMP280;46580;52.114;11.674;2023-07-20T10:27:14;100773.34;;;20.11
60731;BMP280;46580;52.114;11.674;2023-07-20T10:29:41;100776.59;;;19.91
60731;BMP280;46580;52.114;11.674;2023-07-20T10:32:08;100779.66;;;19.72
60731;BMP280;46580;52.114;11.674;2023-07-20T10:34:34;100774.50;;;19.86
60731;BMP280;46580;52.114;11.674;2023-07-20T10:36:59;100775.16;;;19.58
60731;BMP280;46580;52.114;11.674;2023-07-20T10:39:31;100777.78;;;19.58
60731;BMP280;46580;52.114;11.674;2023-07-20T10:44:30;100785.78;;;19.57
60731;BMP280;46580;52.114;11.674;2023-07-20T10:47:02;100787.41;;;19.50
60731;BMP280;46580;52.114;11.674;2023-07-20T10:49:32;100781.53;;;19.48
60731;BMP280;46580;52.114;11.674;2023-07-20T10:51:59;100788.88;;;19.82
60731;BMP280;46580;52.114;11.674;2023-07-20T10:56:51;100772.88;;;20.29
60731;BMP280;46580;52.114;11.674;2023-07-20T11:01:55;100773.34;;;21.19
60731;BMP280;46580;52.114;11.674;2023-07-20T11:04:45;100763.13;;;21.23
60731;BMP280;46580;52.114;11.674;2023-07-20T11:07:10;100762.31;;;21.09
60731;BMP280;46580;52.114;11.674;2023-07-20T11:09:40;100768.81;;;21.41
60731;BMP280;46580;52.114;11.674;2023-07-20T11:12:15;100762.16;;;21.59
60731;BMP280;46580;52.114;11.674;2023-07-20T11:14:57;100762.69;;;21.34
60731;BMP280;46580;52.114;11.674;2023-07-20T11:17:32;100754.19;;;21.32
60731;BMP280;46580;52.114;11.674;2023-07-20T11:19:59;100758.09;;;21.57
60731;BMP280;46580;52.114;11.674;2023-07-20T11:22:30;100755.38;;;21.64
60731;BMP280;46580;52.114;11.674;2023-07-20T11:24:57;100759.50;;;21.87
60731;BMP280;46580;52.114;11.674;2023-07-20T11:27:23;100761.44;;;21.65
60731;BMP280;46580;52.114;11.674;2023-07-20T11:29:48;100759.16;;;21.76
60731;BMP280;46580;52.114;11.674;2023-07-20T11:32:23;100763.13;;;22.07
60731;BMP280;46580;52.114;11.674;2023-07-20T11:34:49;100751.31;;;22.17
60731;BMP280;46580;52.114;11.674;2023-07-20T11:37:15;100753.06;;;22.31
60731;BMP280;46580;52.114;11.674;2023-07-20T11:39:41;100754.75;;;22.17
60731;BMP280;46580;52.114;11.674;2023-07-20T11:42:06;100760.31;;;21.88
60731;BMP280;46580;52.114;11.674;2023-07-20T11:44:32;100760.78;;;21.63
60731;BMP280;46580;52.114;11.674;2023-07-20T11:49:42;100752.34;;;21.47
60731;BMP280;46580;52.114;11.674;2023-07-20T11:52:10;100752.84;;;21.57
60731;BMP280;46580;52.114;11.674;2023-07-20T11:54:38;100757.69;;;21.39
60731;BMP280;46580;52.114;11.674;2023-07-20T11:57:05;100749.28;;;21.29
60731;BMP280;46580;52.114;11.674;2023-07-20T11:59:31;100758.50;;;21.40
60731;BMP280;46580;52.114;11.674;2023-07-20T12:01:58;100749.28;;;21.29
60731;BMP280;46580;52.114;11.674;2023-07-20T12:04:23;100760.16;;;21.12
60731;BMP280;46580;52.114;11.674;2023-07-20T12:06:49;100753.59;;;21.51
60731;BMP280;46580;52.114;11.674;2023-07-20T12:09:16;100747.50;;;22.40
60731;BMP280;46580;52.114;11.674;2023-07-20T12:11:43;100749.16;;;22.68
60731;BMP280;46580;52.114;11.674;2023-07-20T12:14:09;100746.72;;;22.99
60731;BMP280;46580;52.114;11.674;2023-07-20T12:16:37;100742.78;;;22.56
60731;BMP280;46580;52.114;11.674;2023-07-20T12:19:10;100747.09;;;22.90
60731;BMP280;46580;52.114;11.674;2023-07-20T12:21:37;100739.69;;;23.06
60731;BMP280;46580;52.114;11.674;2023-07-20T12:24:04;100749.09;;;23.21
60731;BMP280;46580;52.114;11.674;2023-07-20T12:26:31;100735.09;;;23.14
60731;BMP280;46580;52.114;11.674;2023-07-20T12:28:56;100736.81;;;22.62
60731;BMP280;46580;52.114;11.674;2023-07-20T12:31:25;100745.03;;;22.12
60731;BMP280;46580;52.114;11.674;2023-07-20T12:33:51;100744.22;;;22.11
60731;BMP280;46580;52.114;11.674;2023-07-20T12:36:19;100735.28;;;22.73
60731;BMP280;46580;52.114;11.674;2023-07-20T12:38:45;100738.50;;;23.09
60731;BMP280;46580;52.114;11.674;2023-07-20T12:41:11;100731.91;;;23.25
60731;BMP280;46580;52.114;11.674;2023-07-20T12:43:42;100729.31;;;23.71
60731;BMP280;46580;52.114;11.674;2023-07-20T12:46:08;100714.94;;;23.80
60731;BMP280;46580;52.114;11.674;2023-07-20T12:48:33;100711.31;;;23.81
60731;BMP280;46580;52.114;11.674;2023-07-20T12:51:00;100712.19;;;24.13
60731;BMP280;46580;52.114;11.674;2023-07-20T12:53:27;100718.25;;;23.30
60731;BMP280;46580;52.114;11.674;2023-07-20T12:55:53;100725.97;;;22.51
60731;BMP280;46580;52.114;11.674;2023-07-20T12:58:19;100718.44;;;22.62
60731;BMP280;46580;52.114;11.674;2023-07-20T13:00:44;100722.56;;;22.71
60731;BMP280;46580;52.114;11.674;2023-07-20T13:03:10;100726.41;;;23.14
60731;BMP280;46580;52.114;11.674;2023-07-20T13:05:35;100722.84;;;23.80
60731;BMP280;46580;52.114;11.674;2023-07-20T13:08:01;100713.38;;;23.91
60731;BMP280;46580;52.114;11.674;2023-07-20T13:10:27;100716.03;;;24.55
60731;BMP280;46580;52.114;11.674;2023-07-20T13:12:54;100707.31;;;24.54
60731;BMP280;46580;52.114;11.674;2023-07-20T13:15:20;100714.22;;;24.30
60731;BMP280;46580;52.114;11.674;2023-07-20T13:17:46;100713.41;;;24.48
60731;BMP280;46580;52.114;11.674;2023-07-20T13:20:13;100706.50;;;24.54
60731;BMP280;46580;52.114;11.674;2023-07-20T13:22:40;100708.50;;;23.88
60731;BMP280;46580;52.114;11.674;2023-07-20T13:25:07;100711.59;;;24.30
60731;BMP280;46580;52.114;11.674;2023-07-20T13:27:33;100710.59;;;24.43
60731;BMP280;46580;52.114;11.674;2023-07-20T13:29:59;100708.13;;;24.86
60731;BMP280;46580;52.114;11.674;2023-07-20T13:32:26;100701.25;;;24.54
60731;BMP280;46580;52.114;11.674;2023-07-20T13:34:51;100701.09;;;24.11
60731;BMP280;46580;52.114;11.674;2023-07-20T13:37:18;100709.78;;;24.24
60731;BMP280;46580;52.114;11.674;2023-07-20T13:39:44;100706.94;;;24.57
60731;BMP280;46580;52.114;11.674;2023-07-20T16:54:47;100682.31;;;22.37
60731;BMP280;46580;52.114;11.674;2023-07-20T17:00:40;100675.78;;;22.27
60731;BMP280;46580;52.114;11.674;2023-07-20T17:03:11;100673.06;;;22.41
60731;BMP280;46580;52.114;11.674;2023-07-20T17:06:02;100674.13;;;22.53
60731;BMP280;46580;52.114;11.674;2023-07-20T17:08:31;100677.84;;;22.37
60731;BMP280;46580;52.114;11.674;2023-07-20T17:14:24;100678.47;;;22.13
60731;BMP280;46580;52.114;11.674;2023-07-20T17:20:37;100677.03;;;22.10
60731;BMP280;46580;52.114;11.674;2023-07-20T17:27:21;100672.78;;;22.30
60731;BMP280;46580;52.114;11.674;2023-07-20T17:36:32;100678.28;;;22.14
60731;BMP280;46580;52.114;11.674;2023-07-20T17:39:04;100667.81;;;22.14
60731;BMP280;46580;52.114;11.674;2023-07-20T17:53:00;100670.44;;;21.73
60731;BMP280;46580;52.114;11.674;2023-07-20T17:55:54;100663.94;;;21.69
60731;BMP280;46580;52.114;11.674;2023-07-20T17:58:50;100657.56;;;21.78
60731;BMP280;46580;52.114;11.674;2023-07-20T18:02:20;100663.25;;;21.81
60731;BMP280;46580;52.114;11.674;2023-07-20T18:05:25;100663.63;;;21.58
60731;BMP280;46580;52.114;11.674;2023-07-20T18:08:08;100663.94;;;21.49
60731;BMP280;46580;52.114;11.674;2023-07-20T18:11:24;100662.75;;;21.51
60731;BMP280;46580;52.114;11.674;2023-07-20T18:14:30;100670.00;;;21.49
60731;BMP280;46580;52.114;11.674;2023-07-20T18:17:01;100678.44;;;21.51
60731;BMP280;46580;52.114;11.674;2023-07-20T18:19:44;100671.41;;;21.52